createdAt,value
2017-07-17T00:00:12.919Z,12.40
2017-07-17T00:02:16.335Z,11.27
2017-07-17T00:04:20.338Z,11.10
2017-07-17T00:06:24.036Z,11.33
2017-07-17T00:08:27.811Z,13.63
2017-07-17T00:10:31.949Z,11.73
2017-07-17T00:12:35.645Z,11.80
2017-07-17T00:14:38.734Z,11.10
2017-07-17T00:16:42.531Z,11.23
2017-07-17T00:18:45.701Z,14.00
2017-07-17T00:20:49.315Z,12.07
2017-07-17T00:22:52.808Z,12.10
2017-07-17T00:24:56.512Z,12.40
2017-07-17T00:26:59.698Z,11.47
2017-07-17T00:29:02.984Z,11.90
2017-07-17T00:31:06.683Z,11.33
2017-07-17T00:33:10.075Z,11.77
2017-07-17T00:35:13.548Z,12.10
2017-07-17T00:37:17.468Z,12.00
2017-07-17T00:39:20.660Z,11.70
2017-07-17T00:41:24.769Z,10.90
2017-07-17T00:43:28.061Z,12.00
2017-07-17T00:45:31.427Z,12.90
2017-07-17T00:47:34.739Z,11.40
2017-07-17T00:49:38.137Z,12.17
2017-07-17T00:51:41.523Z,12.40
2017-07-17T00:53:45.222Z,12.13
2017-07-17T00:55:48.925Z,11.83
2017-07-17T00:57:52.619Z,11.80
2017-07-17T00:59:56.118Z,12.00
2017-07-17T01:02:00.201Z,11.80
2017-07-17T01:04:03.924Z,11.53
2017-07-17T01:06:07.624Z,12.03
2017-07-17T01:08:11.125Z,11.60
2017-07-17T01:10:15.098Z,11.43
2017-07-17T01:12:19.438Z,12.00
2017-07-17T01:14:23.239Z,13.07
2017-07-17T01:16:27.353Z,11.87
2017-07-17T01:18:30.844Z,12.90
2017-07-17T01:20:35.260Z,12.00
2017-07-17T01:22:38.942Z,12.33
2017-07-17T01:24:42.657Z,12.23
2017-07-17T01:26:46.044Z,12.10
2017-07-17T01:28:49.537Z,11.97
2017-07-17T01:30:52.852Z,12.53
2017-07-17T01:32:55.914Z,11.23
2017-07-17T01:35:00.126Z,11.13
2017-07-17T01:37:03.312Z,12.50
2017-07-17T01:39:06.702Z,11.87
2017-07-17T01:41:10.094Z,12.10
2017-07-17T01:43:13.688Z,11.60
2017-07-17T01:45:17.687Z,12.57
2017-07-17T01:47:21.293Z,12.20
2017-07-17T01:49:25.301Z,12.77
2017-07-17T01:51:28.590Z,11.80
2017-07-17T01:53:32.289Z,12.53
2017-07-17T01:55:35.816Z,13.13
2017-07-17T01:57:39.559Z,11.60
2017-07-17T01:59:43.075Z,12.27
2017-07-17T02:01:46.569Z,12.10
2017-07-17T02:03:50.267Z,11.70
2017-07-17T02:05:53.556Z,11.80
2017-07-17T02:07:57.256Z,12.70
2017-07-17T02:10:00.750Z,12.60
2017-07-17T02:12:04.347Z,11.40
2017-07-17T02:14:08.330Z,11.40
2017-07-17T02:16:11.846Z,11.90
2017-07-17T02:18:15.751Z,11.63
2017-07-17T02:20:19.248Z,12.27
2017-07-17T02:22:22.233Z,11.20
2017-07-17T02:24:25.824Z,12.20
2017-07-17T02:26:29.727Z,11.63
2017-07-17T02:28:33.198Z,11.90
2017-07-17T02:30:37.126Z,11.90
2017-07-17T02:32:40.413Z,12.60
2017-07-17T02:34:43.912Z,11.73
2017-07-17T02:36:47.403Z,12.70
2017-07-17T02:38:52.106Z,12.23
2017-07-17T02:40:56.138Z,11.73
2017-07-17T02:43:00.013Z,12.10
2017-07-17T02:45:04.049Z,12.30
2017-07-17T02:47:07.233Z,11.53
2017-07-17T02:49:10.916Z,12.10
2017-07-17T02:51:14.888Z,11.87
2017-07-17T02:53:18.428Z,11.17
2017-07-17T02:55:21.928Z,13.40
2017-07-17T02:57:25.627Z,13.07
2017-07-17T02:59:28.912Z,12.40
2017-07-17T03:01:32.308Z,12.17
2017-07-17T03:03:36.210Z,11.27
2017-07-17T03:05:39.700Z,12.10
2017-07-17T03:07:43.398Z,11.30
2017-07-17T03:09:46.666Z,11.57
2017-07-17T03:11:50.183Z,12.00
2017-07-17T03:13:54.087Z,11.40
2017-07-17T03:15:58.096Z,11.10
2017-07-17T03:18:01.711Z,11.97
2017-07-17T03:20:05.544Z,12.20
2017-07-17T03:22:09.399Z,12.87
2017-07-17T03:24:17.599Z,12.40
2017-07-17T03:26:21.298Z,11.70
2017-07-17T03:28:24.462Z,12.03
2017-07-17T03:30:28.479Z,11.53
2017-07-17T03:32:32.200Z,12.13
2017-07-17T03:34:35.588Z,11.60
2017-07-17T03:36:39.285Z,11.80
2017-07-17T03:38:42.676Z,12.00
2017-07-17T03:40:46.167Z,12.10
2017-07-17T03:42:49.559Z,11.47
2017-07-17T03:44:53.570Z,12.03
2017-07-17T03:46:57.776Z,11.97
2017-07-17T03:49:01.250Z,12.00
2017-07-17T03:51:04.765Z,12.07
2017-07-17T03:53:08.158Z,11.93
2017-07-17T03:55:11.360Z,12.57
2017-07-17T03:57:15.762Z,11.30
2017-07-17T03:59:19.130Z,12.13
2017-07-17T04:01:22.445Z,11.93
2017-07-17T04:03:26.244Z,13.50
2017-07-17T04:05:29.840Z,13.07
2017-07-17T04:07:33.645Z,11.73
2017-07-17T04:09:37.237Z,12.70
2017-07-17T04:11:41.044Z,11.23
2017-07-17T04:13:44.922Z,11.70
2017-07-17T04:15:49.054Z,13.20
2017-07-17T04:17:53.466Z,12.97
2017-07-17T04:19:56.844Z,12.23
2017-07-17T04:22:00.844Z,12.03
2017-07-17T04:24:04.467Z,12.53
2017-07-17T04:26:07.843Z,13.20
2017-07-17T04:28:11.245Z,12.37
2017-07-17T04:30:14.720Z,14.03
2017-07-17T04:32:22.841Z,12.53
2017-07-17T04:34:26.338Z,13.80
2017-07-17T04:36:30.241Z,14.07
2017-07-17T04:38:33.632Z,13.90
2017-07-17T04:40:37.539Z,12.70
2017-07-17T04:42:41.132Z,11.80
2017-07-17T04:44:44.728Z,12.97
2017-07-17T04:46:48.121Z,11.10
2017-07-17T04:48:52.945Z,12.73
2017-07-17T04:50:56.757Z,12.00
2017-07-17T04:53:00.455Z,12.50
2017-07-17T04:55:04.429Z,12.43
2017-07-17T04:57:08.175Z,11.63
2017-07-17T04:59:12.692Z,11.17
2017-07-17T05:01:16.479Z,11.03
2017-07-17T05:03:19.763Z,11.47
2017-07-17T05:05:23.457Z,10.80
2017-07-17T05:07:27.160Z,11.60
2017-07-17T05:09:30.754Z,10.30
2017-07-17T05:11:34.152Z,9.90
2017-07-17T05:13:37.214Z,9.57
2017-07-17T05:15:41.546Z,10.60
2017-07-17T05:17:45.225Z,8.77
2017-07-17T05:19:49.137Z,8.93
2017-07-17T05:21:53.256Z,8.60
2017-07-17T05:23:56.970Z,9.20
2017-07-17T05:26:00.124Z,8.10
2017-07-17T05:28:03.942Z,7.00
2017-07-17T05:30:07.436Z,8.90
2017-07-17T05:32:11.038Z,8.23
2017-07-17T05:34:15.554Z,8.13
2017-07-17T05:36:19.153Z,7.47
2017-07-17T05:38:22.542Z,7.63
2017-07-17T05:40:26.344Z,6.80
2017-07-17T05:42:30.244Z,7.10
2017-07-17T05:44:33.844Z,6.80
2017-07-17T05:46:37.031Z,7.20
2017-07-17T05:48:40.525Z,6.57
2017-07-17T05:50:44.529Z,7.50
2017-07-17T05:52:48.022Z,6.60
2017-07-17T05:54:52.236Z,5.73
2017-07-17T05:56:55.626Z,6.43
2017-07-17T05:58:59.020Z,6.23
2017-07-17T06:01:02.920Z,6.40
2017-07-17T06:03:06.698Z,6.03
2017-07-17T06:05:10.421Z,5.27
2017-07-17T06:07:14.225Z,5.37
2017-07-17T06:09:17.926Z,5.30
2017-07-17T06:11:21.826Z,5.20
2017-07-17T06:13:25.223Z,5.10
2017-07-17T06:15:28.919Z,4.73
2017-07-17T06:17:32.621Z,5.17
2017-07-17T06:19:36.113Z,4.57
2017-07-17T06:21:39.911Z,5.10
2017-07-17T06:23:43.919Z,5.00
2017-07-17T06:25:47.821Z,4.10
2017-07-17T06:27:51.747Z,4.70
2017-07-17T06:29:55.850Z,4.50
2017-07-17T06:31:59.304Z,5.00
2017-07-17T06:34:03.640Z,4.03
2017-07-17T06:36:07.267Z,4.10
2017-07-17T06:38:11.764Z,3.87
2017-07-17T06:40:15.559Z,4.53
2017-07-17T06:42:20.164Z,4.70
2017-07-17T06:44:24.900Z,3.90
2017-07-17T06:46:28.170Z,4.07
2017-07-17T06:48:32.407Z,5.00
2017-07-17T06:50:38.463Z,4.70
2017-07-17T06:52:43.594Z,4.47
2017-07-17T06:54:48.083Z,5.30
2017-07-17T06:56:51.707Z,5.87
2017-07-17T06:58:55.606Z,5.70
2017-07-17T07:00:58.975Z,5.47
2017-07-17T07:03:02.978Z,4.33
2017-07-17T07:05:06.399Z,4.87
2017-07-17T07:07:10.100Z,4.73
2017-07-17T07:09:13.900Z,5.63
2017-07-17T07:11:17.697Z,4.97
2017-07-17T07:13:21.192Z,5.40
2017-07-17T07:15:25.302Z,4.50
2017-07-17T07:17:28.774Z,4.50
2017-07-17T07:19:32.774Z,4.67
2017-07-17T07:21:37.124Z,5.10
2017-07-17T07:23:41.226Z,4.70
2017-07-17T07:25:44.822Z,4.83
2017-07-17T07:27:49.850Z,5.30
2017-07-17T07:29:53.246Z,4.23
2017-07-17T07:31:57.146Z,5.00
2017-07-17T07:34:00.614Z,5.30
2017-07-17T07:36:04.236Z,5.20
2017-07-17T07:38:08.345Z,4.40
2017-07-17T07:40:11.750Z,4.53
2017-07-17T07:42:15.517Z,4.33
2017-07-17T07:44:19.137Z,4.43
2017-07-17T07:46:22.628Z,4.63
2017-07-17T07:48:26.326Z,4.70
2017-07-17T07:50:30.132Z,4.90
2017-07-17T07:52:33.519Z,3.90
2017-07-17T07:54:36.914Z,4.57
2017-07-17T07:56:40.287Z,4.70
2017-07-17T07:58:44.003Z,4.53
2017-07-17T08:00:47.267Z,4.17
2017-07-17T08:02:51.096Z,5.07
2017-07-17T08:04:54.795Z,5.17
2017-07-17T08:06:58.491Z,5.30
2017-07-17T08:09:01.789Z,5.10
2017-07-17T08:11:05.684Z,4.27
2017-07-17T08:13:09.191Z,4.80
2017-07-17T08:15:13.066Z,5.10
2017-07-17T08:17:17.069Z,4.70
2017-07-17T08:19:20.892Z,4.20
2017-07-17T08:21:24.588Z,4.87
2017-07-17T08:23:28.979Z,4.63
2017-07-17T08:25:32.498Z,4.87
2017-07-17T08:27:36.198Z,4.50
2017-07-17T08:29:39.794Z,4.67
2017-07-17T08:31:42.983Z,5.00
2017-07-17T08:33:47.401Z,5.47
2017-07-17T08:35:51.096Z,4.30
2017-07-17T08:37:54.494Z,4.90
2017-07-17T08:39:57.983Z,4.30
2017-07-17T08:42:02.096Z,5.47
2017-07-17T08:44:10.912Z,5.00
2017-07-17T08:46:14.699Z,4.70
2017-07-17T08:48:18.516Z,5.20
2017-07-17T08:50:22.318Z,4.90
2017-07-17T08:52:26.325Z,4.37
2017-07-17T08:54:29.712Z,5.80
2017-07-17T08:56:33.928Z,5.27
2017-07-17T08:58:37.729Z,5.23
2017-07-17T09:00:42.145Z,5.10
2017-07-17T09:02:45.635Z,4.60
2017-07-17T09:04:49.026Z,5.40
2017-07-17T09:06:52.832Z,5.37
2017-07-17T09:08:56.939Z,4.17
2017-07-17T09:11:00.842Z,4.90
2017-07-17T09:13:04.026Z,4.60
2017-07-17T09:15:07.933Z,4.50
2017-07-17T09:17:11.530Z,4.30
2017-07-17T09:19:15.431Z,5.13
2017-07-17T09:21:18.928Z,4.90
2017-07-17T09:23:22.418Z,4.93
2017-07-17T09:25:26.299Z,5.80
2017-07-17T09:27:30.329Z,5.00
2017-07-17T09:29:34.132Z,5.10
2017-07-17T09:31:37.726Z,4.47
2017-07-17T09:33:41.323Z,4.50
2017-07-17T09:35:45.108Z,4.83
2017-07-17T09:37:48.312Z,4.50
2017-07-17T09:39:52.932Z,4.93
2017-07-17T09:41:56.132Z,4.80
2017-07-17T09:44:00.124Z,4.60
2017-07-17T09:46:04.236Z,4.63
2017-07-17T09:48:08.014Z,4.20
2017-07-17T09:50:11.529Z,5.13
2017-07-17T09:52:14.917Z,5.27
2017-07-17T09:54:18.830Z,4.60
2017-07-17T09:56:22.216Z,4.43
2017-07-17T09:58:26.050Z,4.43
2017-07-17T10:00:29.718Z,4.93
2017-07-17T10:02:33.010Z,4.07
2017-07-17T10:04:36.782Z,4.53
2017-07-17T10:06:40.405Z,4.50
2017-07-17T10:08:43.901Z,4.93
2017-07-17T10:10:47.722Z,4.97
2017-07-17T10:12:51.501Z,5.20
2017-07-17T10:14:55.689Z,4.60
2017-07-17T10:16:59.522Z,5.07
2017-07-17T10:43:31.315Z,4.10
2017-07-17T10:45:35.278Z,4.27
2017-07-17T10:47:39.135Z,3.70
2017-07-17T10:49:43.259Z,4.20
2017-07-17T10:51:47.139Z,4.00
2017-07-17T10:53:50.843Z,4.60
2017-07-17T10:55:54.962Z,4.07
2017-07-17T10:57:58.446Z,4.43
2017-07-17T11:00:02.107Z,4.17
2017-07-17T11:02:05.330Z,4.33
2017-07-17T11:04:09.106Z,5.00
2017-07-17T11:06:12.621Z,4.93
2017-07-17T11:08:16.218Z,4.60
2017-07-17T11:10:19.818Z,4.60
2017-07-17T11:12:24.129Z,4.40
2017-07-17T11:14:27.318Z,3.80
2017-07-17T11:16:30.910Z,4.00
2017-07-17T11:18:34.894Z,4.73
2017-07-17T11:20:38.621Z,3.93
2017-07-17T11:22:42.523Z,3.80
2017-07-17T11:24:46.020Z,3.53
2017-07-17T11:26:49.793Z,4.10
2017-07-17T11:28:53.619Z,4.10
2017-07-17T11:30:57.805Z,4.73
2017-07-17T11:33:01.895Z,4.83
2017-07-17T11:35:05.433Z,4.30
2017-07-17T11:37:08.699Z,3.77
2017-07-17T11:39:12.526Z,4.20
2017-07-17T11:41:15.915Z,3.93
2017-07-17T11:43:19.921Z,3.83
2017-07-17T11:45:23.597Z,4.03
2017-07-17T12:00:06.924Z,4.30
2017-07-17T12:02:10.928Z,4.43
2017-07-17T12:04:15.242Z,4.70
2017-07-17T12:06:18.836Z,4.30
2017-07-17T12:08:22.431Z,4.10
2017-07-17T12:10:26.311Z,3.90
2017-07-17T12:12:29.949Z,4.30
2017-07-17T12:14:33.425Z,4.60
2017-07-17T12:16:37.535Z,4.50
2017-07-17T12:18:41.335Z,4.70
2017-07-17T12:20:45.444Z,3.90
2017-07-17T12:22:48.733Z,4.47
2017-07-17T12:24:52.111Z,4.37
2017-07-17T12:26:55.827Z,4.07
2017-07-17T12:28:59.430Z,3.87
2017-07-17T12:31:02.922Z,4.30
2017-07-17T12:33:07.037Z,3.50
2017-07-17T12:35:11.338Z,3.60
2017-07-17T12:37:15.012Z,3.60
2017-07-17T12:39:19.146Z,3.93
2017-07-17T12:41:22.964Z,3.47
2017-07-17T12:43:26.943Z,3.60
2017-07-17T12:45:30.448Z,3.70
2017-07-17T12:47:34.044Z,4.07
2017-07-17T12:49:37.644Z,4.27
2017-07-17T12:51:41.140Z,3.50
2017-07-17T12:53:45.142Z,3.70
2017-07-17T12:55:49.052Z,4.10
2017-07-17T12:57:53.750Z,3.50
2017-07-17T12:59:57.979Z,3.90
2017-07-17T13:02:02.293Z,3.20
2017-07-17T13:04:06.209Z,3.20
2017-07-17T13:06:09.666Z,3.37
2017-07-17T13:08:13.902Z,3.40
2017-07-17T13:10:17.429Z,3.90
2017-07-17T13:12:22.225Z,2.87
2017-07-17T13:14:25.510Z,3.00
2017-07-17T13:16:29.498Z,3.30
2017-07-17T13:18:33.505Z,2.90
2017-07-17T13:20:37.119Z,3.20
2017-07-17T13:22:40.511Z,4.20
2017-07-17T13:24:43.906Z,3.43
2017-07-17T13:26:47.299Z,3.53
2017-07-17T13:28:51.301Z,3.77
2017-07-17T13:30:54.796Z,3.30
2017-07-17T13:32:59.211Z,3.50
2017-07-17T13:35:04.653Z,2.90
2017-07-17T13:37:10.399Z,4.00
2017-07-17T13:39:14.282Z,3.50
2017-07-17T13:41:18.727Z,3.00
2017-07-17T13:43:23.547Z,3.53
2017-07-17T13:45:27.579Z,3.30
2017-07-17T13:47:32.380Z,2.77
2017-07-17T13:51:59.947Z,3.27
2017-07-17T13:54:11.020Z,2.33
2017-07-17T13:56:22.914Z,2.67
2017-07-17T13:58:35.985Z,2.47
2017-07-17T14:00:45.956Z,2.77
2017-07-17T14:02:57.355Z,3.10
2017-07-17T14:05:08.014Z,2.70
2017-07-17T14:07:20.878Z,2.90
2017-07-17T14:09:30.061Z,2.50
2017-07-17T14:11:43.835Z,3.10
2017-07-17T14:13:51.383Z,2.80
2017-07-17T14:16:01.781Z,2.83
2017-07-17T14:18:13.765Z,3.40
2017-07-17T14:20:23.756Z,2.57
2017-07-17T14:22:39.458Z,3.30
2017-07-17T14:24:48.275Z,4.70
2017-07-17T14:26:56.176Z,2.93
2017-07-17T14:29:05.615Z,2.63
2017-07-17T14:31:13.592Z,2.37
2017-07-17T14:33:24.272Z,2.50
2017-07-17T14:35:37.514Z,2.17
2017-07-17T14:37:46.824Z,2.30
2017-07-17T14:39:57.585Z,3.03
2017-07-17T14:42:10.913Z,2.57
2017-07-17T14:44:25.056Z,2.70
2017-07-17T14:46:36.405Z,2.57
2017-07-17T14:48:43.207Z,2.90
2017-07-17T14:50:54.351Z,2.50
2017-07-17T14:53:07.325Z,2.60
2017-07-17T14:55:17.241Z,2.30
2017-07-17T14:57:28.273Z,2.57
2017-07-17T14:59:37.845Z,2.67
2017-07-17T15:01:46.782Z,2.80
2017-07-17T15:03:57.193Z,2.40
2017-07-17T15:06:07.078Z,2.10
2017-07-17T15:08:18.450Z,2.90
2017-07-17T15:10:29.113Z,2.70
2017-07-17T15:12:42.105Z,2.90
2017-07-17T15:14:53.065Z,2.30
2017-07-17T15:17:01.198Z,2.00
2017-07-17T15:19:13.014Z,2.53
2017-07-17T15:21:22.428Z,2.40
2017-07-17T15:23:27.967Z,2.20
2017-07-17T15:25:39.933Z,2.30
2017-07-17T15:27:50.724Z,1.90
2017-07-17T15:30:02.887Z,2.30
2017-07-17T15:32:11.746Z,2.20
2017-07-17T15:34:21.831Z,3.07
2017-07-17T15:36:35.816Z,2.47
2017-07-17T15:38:48.779Z,2.50
2017-07-17T15:41:00.429Z,2.47
2017-07-17T15:43:11.719Z,2.80
2017-07-17T15:45:21.696Z,2.30
2017-07-17T15:47:30.668Z,2.30
2017-07-17T15:49:41.952Z,2.63
2017-07-17T15:51:49.340Z,2.40
2017-07-17T15:53:58.153Z,2.40
2017-07-17T15:56:09.568Z,2.70
2017-07-17T15:58:22.143Z,2.80
2017-07-17T16:00:34.507Z,2.90
2017-07-17T16:02:45.310Z,2.40
2017-07-17T16:04:54.951Z,2.13
2017-07-17T16:07:05.001Z,2.40
2017-07-17T16:09:18.409Z,2.57
2017-07-17T16:11:29.598Z,2.20
2017-07-17T16:13:41.895Z,2.60
2017-07-17T16:15:51.027Z,2.40
2017-07-17T16:18:01.310Z,2.20
2017-07-17T16:20:12.273Z,1.87
2017-07-17T16:22:22.090Z,2.30
2017-07-17T16:24:31.525Z,3.23
2017-07-17T16:26:44.195Z,2.33
2017-07-17T16:28:54.381Z,2.33
2017-07-17T16:31:04.140Z,3.00
2017-07-17T16:33:14.070Z,2.70
2017-07-17T16:35:23.295Z,2.63
2017-07-17T16:37:35.700Z,2.80
2017-07-17T16:39:43.703Z,2.33
2017-07-17T16:41:53.029Z,2.50
2017-07-17T16:44:06.473Z,2.57
2017-07-17T16:46:16.960Z,2.27
2017-07-17T16:48:27.933Z,2.17
2017-07-17T16:50:39.907Z,2.50
2017-07-17T16:52:50.881Z,1.90
2017-07-17T16:55:02.638Z,2.10
2017-07-17T16:57:12.788Z,2.43
2017-07-17T16:59:22.224Z,2.40
2017-07-17T17:01:34.778Z,2.00
2017-07-17T17:03:46.760Z,3.00
2017-07-17T17:05:56.266Z,2.60
2017-07-17T17:08:05.393Z,2.37
2017-07-17T17:10:16.671Z,2.10
2017-07-17T17:12:27.526Z,2.10
2017-07-17T17:14:38.618Z,2.37
2017-07-17T17:16:48.593Z,2.43
2017-07-17T17:18:59.098Z,2.80
2017-07-17T17:21:11.540Z,2.67
2017-07-17T17:23:22.986Z,3.03
2017-07-17T17:25:31.598Z,2.00
2017-07-17T17:27:42.036Z,2.53
2017-07-17T17:29:50.672Z,2.63
2017-07-17T17:32:00.408Z,2.33
